Hilo, HI

2:49 PM HST on November 27, 2014 (GMT -1000)
Hilo International | Change Station
CLOSE
Current Station
Airport
Location: Hilo,
Elevation: 36 ft
Nearby Weather Stations
Active Advisory: High Surf Advisory, Wind Advisory

Elev 36 ft 19.72 °N, 155.05 °W | Updated 56 minutes ago

Overcast
Overcast
74 °F
Feels Like 74 °F
N
10
Wind Variable Wind from West

Today
High -- | Low -- °F
--% Chance of Precip.
Yesterday
High -- | Low -- °F
Precip. -- in
6:36 AM 5:39 PM
Waxing Crescent, 34% visible
Pressure 30.00 in
Visibility 10.0 miles
Clouds Few 2500 ft
Mostly Cloudy 3700 ft
Overcast 7000 ft
Dew Point 70 °F
Humidity 87%
Rainfall 0.02 in
Snow Depth Not available.
UV 2 out of 12
Pollen Not available.
Air Quality Not available.
Flu Activity Not available.
METAR PHTO 272353Z 28009KT 10SM FEW025 BKN037 OVC070 23/21 A3000 RMK AO2 RAE44 SLP158 VIS LWR SW-NW P0002 60002 T02330211 10261 20222 57020 $

More Conditions Fewer Conditions

Pressure 30.00 in
Visibility 10.0 miles
Clouds Few 2500 ft
Mostly Cloudy 3700 ft
Overcast 7000 ft
Dew Point 70 °F
Humidity 87%
Rainfall 0.02 in
Snow Depth Not available.
UV 2 out of 12
Pollen Not available.
Air Quality Not available.
Flu Activity Not available.
METAR PHTO 272353Z 28009KT 10SM FEW025 BKN037 OVC070 23/21 A3000 RMK AO2 RAE44 SLP158 VIS LWR SW-NW P0002 60002 T02330211 10261 20222 57020 $

More Conditions Fewer Conditions

10-Day Weather Forecast

Almanac

Astronomy

Nov. 27, 2014 Rise Set
Actual Time
Civil Twilight
Nautical Twilight
Astronomical Twilight
Moon
Length of Visible Light
Length of Day
Tomorrow will be .
, % of the Moon is Illuminated

Today's Extremes

State Highs State Lows

Community

WunderPhotos

Upload Photos

1,774,146 photos uploaded!

WunderBlogs® & News

Nearby

Air Quality

  Air Quality AQ Index Pollutant
Not available.

Snow Depth

Station Depth Elevation

Earthquake Activity

City Distance Mag. Time & Date
Minimum magnitude displayed is 2.5.

Coastal Water Temperatures

Place Temperature

Nearby Weather Stations